sensor_id;sensor_type;location;lat;lon;timestamp;pressure;altitude;pressure_sealevel;temperature;humidity
75312;BME280;63906;55.686;37.532;2022-10-26T00:02:37;99951.66;;;1.61;72.06
75312;BME280;63906;55.686;37.532;2022-10-26T00:07:57;99968.34;;;1.47;72.79
75312;BME280;63906;55.686;37.532;2022-10-26T00:13:16;99957.78;;;1.28;73.36
75312;BME280;63906;55.686;37.532;2022-10-26T00:18:35;99970.91;;;1.15;73.51
75312;BME280;63906;55.686;37.532;2022-10-26T00:23:54;99977.41;;;0.98;74.32
75312;BME280;63906;55.686;37.532;2022-10-26T00:29:14;99932.22;;;0.69;74.51
75312;BME280;63906;55.686;37.532;2022-10-26T00:34:33;99963.53;;;0.88;74.44
75312;BME280;63906;55.686;37.532;2022-10-26T00:39:52;99949.38;;;0.92;73.99
75312;BME280;63906;55.686;37.532;2022-10-26T00:45:18;99954.81;;;0.89;74.43
75312;BME280;63906;55.686;37.532;2022-10-26T00:50:42;99949.38;;;0.92;74.15
75312;BME280;63906;55.686;37.532;2022-10-26T00:56:02;99946.09;;;1.01;74.45
75312;BME280;63906;55.686;37.532;2022-10-26T01:01:21;99921.38;;;0.75;74.79
75312;BME280;63906;55.686;37.532;2022-10-26T01:06:41;99954.75;;;1.12;74.07
75312;BME280;63906;55.686;37.532;2022-10-26T01:12:00;99948.31;;;1.06;74.85
75312;BME280;63906;55.686;37.532;2022-10-26T01:17:54;99969.84;;;1.18;74.40
75312;BME280;63906;55.686;37.532;2022-10-26T01:29:19;99937.34;;;1.14;73.85
75312;BME280;63906;55.686;37.532;2022-10-26T01:35:13;99957.50;;;1.42;73.72
75312;BME280;63906;55.686;37.532;2022-10-26T01:40:39;99927.19;;;1.11;73.61
75312;BME280;63906;55.686;37.532;2022-10-26T01:46:02;99917.25;;;1.27;73.04
75312;BME280;63906;55.686;37.532;2022-10-26T01:51:22;99953.31;;;1.30;73.24
75312;BME280;63906;55.686;37.532;2022-10-26T01:56:46;99945.56;;;1.19;73.41
75312;BME280;63906;55.686;37.532;2022-10-26T02:19:01;99946.59;;;0.50;75.16
75312;BME280;63906;55.686;37.532;2022-10-26T02:24:21;99937.38;;;0.24;75.24
75312;BME280;63906;55.686;37.532;2022-10-26T02:29:42;99963.72;;;0.18;76.06
75312;BME280;63906;55.686;37.532;2022-10-26T02:35:03;99960.69;;;0.35;75.44
75312;BME280;63906;55.686;37.532;2022-10-26T02:40:25;99964.19;;;0.12;76.60
75312;BME280;63906;55.686;37.532;2022-10-26T02:45:58;99958.72;;;-0.08;78.43
75312;BME280;63906;55.686;37.532;2022-10-26T02:57:00;99962.22;;;0.26;76.57
75312;BME280;63906;55.686;37.532;2022-10-26T03:02:21;99933.16;;;0.34;76.28
75312;BME280;63906;55.686;37.532;2022-10-26T03:07:40;99940.81;;;0.36;75.93
75312;BME280;63906;55.686;37.532;2022-10-26T03:12:59;99952.00;;;0.59;75.52
75312;BME280;63906;55.686;37.532;2022-10-26T03:18:19;99933.88;;;0.47;75.42
75312;BME280;63906;55.686;37.532;2022-10-26T03:23:38;99960.38;;;0.51;75.97
75312;BME280;63906;55.686;37.532;2022-10-26T03:28:57;99916.78;;;0.11;75.88
75312;BME280;63906;55.686;37.532;2022-10-26T03:34:17;99942.94;;;0.42;75.37
75312;BME280;63906;55.686;37.532;2022-10-26T03:39:36;99952.69;;;0.27;76.57
75312;BME280;63906;55.686;37.532;2022-10-26T03:44:55;99945.38;;;0.43;76.11
75312;BME280;63906;55.686;37.532;2022-10-26T03:50:21;99918.09;;;0.50;75.27
75312;BME280;63906;55.686;37.532;2022-10-26T03:55:43;99921.13;;;0.78;75.36
75312;BME280;63906;55.686;37.532;2022-10-26T04:01:02;99933.50;;;0.86;74.78
75312;BME280;63906;55.686;37.532;2022-10-26T04:06:22;99940.91;;;0.90;74.06
75312;BME280;63906;55.686;37.532;2022-10-26T04:11:41;99941.09;;;1.10;73.84
75312;BME280;63906;55.686;37.532;2022-10-26T04:17:00;99917.53;;;1.13;73.15
75312;BME280;63906;55.686;37.532;2022-10-26T04:22:20;99945.09;;;1.25;72.82
75312;BME280;63906;55.686;37.532;2022-10-26T04:27:39;99948.41;;;1.16;72.67
75312;BME280;63906;55.686;37.532;2022-10-26T04:32:58;99949.84;;;1.08;72.59
75312;BME280;63906;55.686;37.532;2022-10-26T04:38:18;99953.06;;;1.33;72.22
75312;BME280;63906;55.686;37.532;2022-10-26T04:43:37;99972.34;;;1.51;72.27
75312;BME280;63906;55.686;37.532;2022-10-26T04:48:56;99975.72;;;1.63;72.17
75312;BME280;63906;55.686;37.532;2022-10-26T04:54:15;99976.13;;;1.79;71.73
75312;BME280;63906;55.686;37.532;2022-10-26T04:59:35;99968.22;;;1.81;70.19
75312;BME280;63906;55.686;37.532;2022-10-26T05:04:54;99944.88;;;1.81;71.05
75312;BME280;63906;55.686;37.532;2022-10-26T05:10:13;99971.34;;;1.96;70.85
75312;BME280;63906;55.686;37.532;2022-10-26T05:15:32;99950.16;;;1.79;70.99
75312;BME280;63906;55.686;37.532;2022-10-26T05:20:52;99965.19;;;2.18;69.54
75312;BME280;63906;55.686;37.532;2022-10-26T05:26:11;99935.91;;;2.15;70.36
75312;BME280;63906;55.686;37.532;2022-10-26T05:31:30;99964.84;;;2.11;70.18
75312;BME280;63906;55.686;37.532;2022-10-26T05:36:52;99969.78;;;2.35;68.94
75312;BME280;63906;55.686;37.532;2022-10-26T05:42:11;99940.66;;;2.10;68.83
75312;BME280;63906;55.686;37.532;2022-10-26T05:47:30;99973.28;;;2.45;69.21
75312;BME280;63906;55.686;37.532;2022-10-26T05:52:49;99958.19;;;2.69;68.46
75312;BME280;63906;55.686;37.532;2022-10-26T05:58:12;99966.88;;;2.80;68.07
75312;BME280;63906;55.686;37.532;2022-10-26T06:09:36;99979.03;;;3.29;67.16
75312;BME280;63906;55.686;37.532;2022-10-26T06:14:56;99967.06;;;3.07;66.15
75312;BME280;63906;55.686;37.532;2022-10-26T06:31:36;99975.81;;;2.66;67.12
75312;BME280;63906;55.686;37.532;2022-10-26T06:36:57;99958.34;;;2.68;67.41
75312;BME280;63906;55.686;37.532;2022-10-26T06:42:18;99968.22;;;2.84;67.18
75312;BME280;63906;55.686;37.532;2022-10-26T06:58:43;99965.06;;;3.40;65.04
75312;BME280;63906;55.686;37.532;2022-10-26T07:04:03;99973.06;;;3.67;65.00
75312;BME280;63906;55.686;37.532;2022-10-26T07:09:22;99962.19;;;4.11;63.88
75312;BME280;63906;55.686;37.532;2022-10-26T07:14:42;99956.50;;;4.35;62.70
75312;BME280;63906;55.686;37.532;2022-10-26T07:20:01;99951.19;;;4.64;61.38
75312;BME280;63906;55.686;37.532;2022-10-26T07:25:21;99970.56;;;4.89;60.64
75312;BME280;63906;55.686;37.532;2022-10-26T07:30:41;99953.81;;;5.19;60.12
75312;BME280;63906;55.686;37.532;2022-10-26T07:36:00;99969.66;;;5.53;59.68
75312;BME280;63906;55.686;37.532;2022-10-26T07:41:19;99963.03;;;5.40;57.88
75312;BME280;63906;55.686;37.532;2022-10-26T07:46:38;99958.28;;;5.26;56.89
75312;BME280;63906;55.686;37.532;2022-10-26T07:51:58;99955.84;;;5.43;57.75
75312;BME280;63906;55.686;37.532;2022-10-26T07:57:17;99963.38;;;5.81;56.15
75312;BME280;63906;55.686;37.532;2022-10-26T08:02:36;99968.38;;;5.57;56.95
75312;BME280;63906;55.686;37.532;2022-10-26T08:07:56;99970.09;;;5.84;57.65
75312;BME280;63906;55.686;37.532;2022-10-26T08:13:15;99961.63;;;6.08;57.81
75312;BME280;63906;55.686;37.532;2022-10-26T08:18:34;99974.03;;;6.06;56.66
75312;BME280;63906;55.686;37.532;2022-10-26T08:23:53;99939.97;;;5.72;55.76
75312;BME280;63906;55.686;37.532;2022-10-26T08:29:13;99970.56;;;5.79;57.11
75312;BME280;63906;55.686;37.532;2022-10-26T08:34:32;99957.78;;;5.58;57.79
75312;BME280;63906;55.686;37.532;2022-10-26T08:39:51;99967.50;;;5.48;56.98
75312;BME280;63906;55.686;37.532;2022-10-26T08:45:30;99981.38;;;5.66;57.33
75312;BME280;63906;55.686;37.532;2022-10-26T08:50:59;99950.31;;;5.63;57.03
75312;BME280;63906;55.686;37.532;2022-10-26T08:56:30;99972.19;;;5.98;56.35
75312;BME280;63906;55.686;37.532;2022-10-26T09:01:50;99967.56;;;6.10;56.33
75312;BME280;63906;55.686;37.532;2022-10-26T09:07:39;99975.84;;;5.87;56.55
75312;BME280;63906;55.686;37.532;2022-10-26T09:24:35;99972.47;;;5.42;57.98
75312;BME280;63906;55.686;37.532;2022-10-26T09:29:59;99950.06;;;5.21;57.87
75312;BME280;63906;55.686;37.532;2022-10-26T09:40:47;99967.78;;;5.81;57.65
75312;BME280;63906;55.686;37.532;2022-10-26T09:46:16;99963.97;;;6.11;57.63
75312;BME280;63906;55.686;37.532;2022-10-26T09:51:37;99976.19;;;6.28;57.13
75312;BME280;63906;55.686;37.532;2022-10-26T09:56:58;99961.41;;;6.19;56.59
75312;BME280;63906;55.686;37.532;2022-10-26T10:13:44;99968.50;;;7.45;53.62
75312;BME280;63906;55.686;37.532;2022-10-26T10:19:03;99962.13;;;8.05;51.21
75312;BME280;63906;55.686;37.532;2022-10-26T10:24:32;99956.69;;;8.47;51.23
75312;BME280;63906;55.686;37.532;2022-10-26T10:29:53;99942.66;;;7.83;51.69
75312;BME280;63906;55.686;37.532;2022-10-26T10:35:23;99940.69;;;7.85;51.94
75312;BME280;63906;55.686;37.532;2022-10-26T10:40:52;99957.34;;;8.25;52.20
75312;BME280;63906;55.686;37.532;2022-10-26T10:46:17;99954.41;;;8.28;51.87
75312;BME280;63906;55.686;37.532;2022-10-26T10:51:38;99920.34;;;8.12;51.36
75312;BME280;63906;55.686;37.532;2022-10-26T11:02:45;99956.72;;;7.82;52.22
75312;BME280;63906;55.686;37.532;2022-10-26T11:08:11;99955.72;;;7.42;52.43
75312;BME280;63906;55.686;37.532;2022-10-26T11:19:44;99960.31;;;7.48;52.17
75312;BME280;63906;55.686;37.532;2022-10-26T11:25:44;99962.28;;;7.63;52.81
75312;BME280;63906;55.686;37.532;2022-10-26T11:31:11;99960.78;;;7.36;53.28
75312;BME280;63906;55.686;37.532;2022-10-26T11:36:34;99941.75;;;6.67;53.24
75312;BME280;63906;55.686;37.532;2022-10-26T11:42:35;99955.28;;;6.96;54.04
75312;BME280;63906;55.686;37.532;2022-10-26T11:48:05;99922.06;;;6.55;54.31
75312;BME280;63906;55.686;37.532;2022-10-26T11:53:35;99923.72;;;6.64;53.97
75312;BME280;63906;55.686;37.532;2022-10-26T11:58:57;99931.44;;;6.65;53.87
75312;BME280;63906;55.686;37.532;2022-10-26T12:04:18;99904.59;;;6.55;53.43
75312;BME280;63906;55.686;37.532;2022-10-26T12:09:41;99928.03;;;6.73;53.66
75312;BME280;63906;55.686;37.532;2022-10-26T12:31:41;99931.19;;;6.16;55.08
75312;BME280;63906;55.686;37.532;2022-10-26T12:53:09;99907.84;;;5.79;56.47
75312;BME280;63906;55.686;37.532;2022-10-26T12:59:07;99926.03;;;6.07;56.36
75312;BME280;63906;55.686;37.532;2022-10-26T13:10:23;99923.69;;;5.60;57.63
75312;BME280;63906;55.686;37.532;2022-10-26T13:15:56;99916.91;;;5.67;57.80
75312;BME280;63906;55.686;37.532;2022-10-26T13:21:17;99933.16;;;5.43;58.42
75312;BME280;63906;55.686;37.532;2022-10-26T13:32:23;99931.91;;;5.29;59.43
75312;BME280;63906;55.686;37.532;2022-10-26T13:37:45;99925.72;;;5.03;59.85
75312;BME280;63906;55.686;37.532;2022-10-26T13:43:13;99931.53;;;4.97;60.50
75312;BME280;63906;55.686;37.532;2022-10-26T13:48:37;99922.47;;;4.73;61.50
75312;BME280;63906;55.686;37.532;2022-10-26T13:54:02;99925.28;;;4.62;62.34
75312;BME280;63906;55.686;37.532;2022-10-26T13:59:28;99921.88;;;4.52;62.30
75312;BME280;63906;55.686;37.532;2022-10-26T14:04:53;99900.84;;;4.36;62.57
75312;BME280;63906;55.686;37.532;2022-10-26T14:15:46;99924.06;;;4.19;63.96
75312;BME280;63906;55.686;37.532;2022-10-26T14:21:07;99935.16;;;4.21;64.28
75312;BME280;63906;55.686;37.532;2022-10-26T14:26:39;99907.34;;;4.02;65.06
75312;BME280;63906;55.686;37.532;2022-10-26T14:31:58;99942.28;;;4.19;64.77
75312;BME280;63906;55.686;37.532;2022-10-26T14:37:59;99937.88;;;4.29;64.41
75312;BME280;63906;55.686;37.532;2022-10-26T14:43:20;99939.28;;;4.14;65.96
75312;BME280;63906;55.686;37.532;2022-10-26T14:48:50;99919.84;;;3.99;65.76
75312;BME280;63906;55.686;37.532;2022-10-26T14:54:19;99954.94;;;4.04;66.06
75312;BME280;63906;55.686;37.532;2022-10-26T14:59:39;99944.69;;;3.93;66.93
75312;BME280;63906;55.686;37.532;2022-10-26T15:05:02;99919.44;;;3.84;66.76
75312;BME280;63906;55.686;37.532;2022-10-26T15:16:32;99945.09;;;3.98;67.34
75312;BME280;63906;55.686;37.532;2022-10-26T15:21:52;99947.50;;;4.10;67.00
75312;BME280;63906;55.686;37.532;2022-10-26T15:27:13;99938.72;;;4.20;66.53
75312;BME280;63906;55.686;37.532;2022-10-26T15:32:33;99945.84;;;4.18;66.40
75312;BME280;63906;55.686;37.532;2022-10-26T15:37:53;99899.22;;;3.68;67.25
75312;BME280;63906;55.686;37.532;2022-10-26T15:43:12;99921.53;;;3.71;67.62
75312;BME280;63906;55.686;37.532;2022-10-26T15:48:32;99942.63;;;3.77;68.01
75312;BME280;63906;55.686;37.532;2022-10-26T15:53:51;99919.59;;;3.54;68.00
75312;BME280;63906;55.686;37.532;2022-10-26T15:59:17;99923.72;;;3.56;67.68
75312;BME280;63906;55.686;37.532;2022-10-26T16:04:36;99940.97;;;3.76;67.54
75312;BME280;63906;55.686;37.532;2022-10-26T16:09:55;99951.69;;;3.54;68.05
75312;BME280;63906;55.686;37.532;2022-10-26T16:15:23;99945.09;;;3.50;68.82
75312;BME280;63906;55.686;37.532;2022-10-26T16:20:45;99950.53;;;3.28;69.32
75312;BME280;63906;55.686;37.532;2022-10-26T16:26:05;99920.84;;;3.11;69.66
75312;BME280;63906;55.686;37.532;2022-10-26T16:31:24;99931.50;;;3.27;68.87
75312;BME280;63906;55.686;37.532;2022-10-26T16:36:43;99947.56;;;3.32;69.37
75312;BME280;63906;55.686;37.532;2022-10-26T16:42:03;99931.13;;;3.32;68.69
75312;BME280;63906;55.686;37.532;2022-10-26T16:47:22;99915.75;;;3.00;70.60
75312;BME280;63906;55.686;37.532;2022-10-26T16:52:41;99947.81;;;3.19;69.87
75312;BME280;63906;55.686;37.532;2022-10-26T16:58:00;99932.44;;;3.16;69.89
75312;BME280;63906;55.686;37.532;2022-10-26T17:03:20;99905.88;;;3.03;69.45
75312;BME280;63906;55.686;37.532;2022-10-26T17:08:39;99938.50;;;3.27;69.25
75312;BME280;63906;55.686;37.532;2022-10-26T17:13:58;99927.41;;;3.24;68.79
75312;BME280;63906;55.686;37.532;2022-10-26T17:19:17;99904.53;;;2.99;69.36
75312;BME280;63906;55.686;37.532;2022-10-26T17:24:37;99907.25;;;3.07;68.81
75312;BME280;63906;55.686;37.532;2022-10-26T17:29:56;99901.22;;;2.97;68.97
75312;BME280;63906;55.686;37.532;2022-10-26T17:35:15;99920.25;;;3.07;69.26
75312;BME280;63906;55.686;37.532;2022-10-26T17:40:34;99922.06;;;3.07;69.58
75312;BME280;63906;55.686;37.532;2022-10-26T17:45:57;99922.72;;;3.09;69.49
75312;BME280;63906;55.686;37.532;2022-10-26T17:51:17;99918.47;;;2.98;69.41
75312;BME280;63906;55.686;37.532;2022-10-26T17:56:36;99921.78;;;3.19;68.49
75312;BME280;63906;55.686;37.532;2022-10-26T18:01:55;99896.94;;;2.77;69.22
75312;BME280;63906;55.686;37.532;2022-10-26T18:07:15;99920.22;;;2.97;69.50
75312;BME280;63906;55.686;37.532;2022-10-26T18:12:34;99903.34;;;2.73;69.86
75312;BME280;63906;55.686;37.532;2022-10-26T18:17:53;99899.94;;;2.72;69.39
75312;BME280;63906;55.686;37.532;2022-10-26T18:23:12;99894.47;;;2.75;69.17
75312;BME280;63906;55.686;37.532;2022-10-26T18:28:32;99925.84;;;2.93;69.64
75312;BME280;63906;55.686;37.532;2022-10-26T18:39:15;99911.66;;;3.07;68.94
75312;BME280;63906;55.686;37.532;2022-10-26T18:44:34;99926.09;;;2.90;69.36
75312;BME280;63906;55.686;37.532;2022-10-26T18:49:53;99934.91;;;3.08;69.70
75312;BME280;63906;55.686;37.532;2022-10-26T18:55:12;99903.94;;;2.86;68.80
75312;BME280;63906;55.686;37.532;2022-10-26T19:00:31;99915.47;;;2.93;68.54
75312;BME280;63906;55.686;37.532;2022-10-26T19:05:51;99939.47;;;3.26;67.83
75312;BME280;63906;55.686;37.532;2022-10-26T19:11:12;99955.75;;;3.28;67.47
75312;BME280;63906;55.686;37.532;2022-10-26T19:16:31;99949.72;;;3.27;68.10
75312;BME280;63906;55.686;37.532;2022-10-26T19:21:50;99916.06;;;3.26;67.55
75312;BME280;63906;55.686;37.532;2022-10-26T19:27:10;99944.00;;;3.43;67.20
75312;BME280;63906;55.686;37.532;2022-10-26T19:32:29;99908.38;;;3.14;66.88
75312;BME280;63906;55.686;37.532;2022-10-26T19:37:48;99942.50;;;3.50;66.64
75312;BME280;63906;55.686;37.532;2022-10-26T19:43:07;99941.41;;;3.43;65.35
75312;BME280;63906;55.686;37.532;2022-10-26T19:48:27;99944.00;;;3.43;66.02
75312;BME280;63906;55.686;37.532;2022-10-26T19:53:46;99930.56;;;3.38;65.71
75312;BME280;63906;55.686;37.532;2022-10-26T19:59:05;99922.75;;;3.47;66.14
75312;BME280;63906;55.686;37.532;2022-10-26T20:04:25;99939.47;;;3.64;65.12
75312;BME280;63906;55.686;37.532;2022-10-26T20:09:44;99902.50;;;3.41;65.23
75312;BME280;63906;55.686;37.532;2022-10-26T20:15:03;99917.44;;;3.68;64.82
75312;BME280;63906;55.686;37.532;2022-10-26T20:20:22;99904.84;;;3.54;64.91
75312;BME280;63906;55.686;37.532;2022-10-26T20:25:47;99918.25;;;3.69;65.01
75312;BME280;63906;55.686;37.532;2022-10-26T20:31:06;99913.56;;;3.72;64.91
75312;BME280;63906;55.686;37.532;2022-10-26T20:36:25;99912.22;;;3.59;64.90
75312;BME280;63906;55.686;37.532;2022-10-26T20:41:44;99913.97;;;3.77;64.63
75312;BME280;63906;55.686;37.532;2022-10-26T20:47:04;99910.56;;;3.77;64.55
75312;BME280;63906;55.686;37.532;2022-10-26T20:52:31;99901.50;;;3.71;64.40
75312;BME280;63906;55.686;37.532;2022-10-26T20:57:59;99902.91;;;3.56;64.74
75312;BME280;63906;55.686;37.532;2022-10-26T21:03:19;99893.16;;;3.77;64.50
75312;BME280;63906;55.686;37.532;2022-10-26T21:08:39;99881.13;;;3.57;64.97
75312;BME280;63906;55.686;37.532;2022-10-26T21:13:58;99864.28;;;3.51;64.68
75312;BME280;63906;55.686;37.532;2022-10-26T21:19:17;99901.09;;;3.66;64.66
75312;BME280;63906;55.686;37.532;2022-10-26T21:24:36;99888.66;;;3.60;65.19
75312;BME280;63906;55.686;37.532;2022-10-26T21:29:56;99877.00;;;3.74;64.89
75312;BME280;63906;55.686;37.532;2022-10-26T21:35:15;99898.66;;;3.74;64.53
75312;BME280;63906;55.686;37.532;2022-10-26T21:40:34;99902.03;;;3.85;64.98
75312;BME280;63906;55.686;37.532;2022-10-26T21:45:57;99901.09;;;3.86;64.68
75312;BME280;63906;55.686;37.532;2022-10-26T21:51:18;99895.91;;;3.86;64.51
75312;BME280;63906;55.686;37.532;2022-10-26T21:56:37;99908.53;;;3.61;65.03
75312;BME280;63906;55.686;37.532;2022-10-26T22:01:56;99884.28;;;3.22;65.67
75312;BME280;63906;55.686;37.532;2022-10-26T22:07:16;99877.81;;;2.97;66.17
75312;BME280;63906;55.686;37.532;2022-10-26T22:12:35;99893.28;;;2.89;67.14
75312;BME280;63906;55.686;37.532;2022-10-26T22:17:54;99905.41;;;2.79;67.59
75312;BME280;63906;55.686;37.532;2022-10-26T22:23:13;99877.06;;;2.66;67.72
75312;BME280;63906;55.686;37.532;2022-10-26T22:28:37;99879.66;;;2.66;67.96
75312;BME280;63906;55.686;37.532;2022-10-26T22:34:01;99899.28;;;2.80;67.94
75312;BME280;63906;55.686;37.532;2022-10-26T22:39:20;99872.00;;;2.64;68.49
75312;BME280;63906;55.686;37.532;2022-10-26T22:44:39;99892.16;;;2.82;67.49
75312;BME280;63906;55.686;37.532;2022-10-26T22:49:59;99845.59;;;2.59;67.56
75312;BME280;63906;55.686;37.532;2022-10-26T22:55:18;99864.94;;;2.76;67.21
75312;BME280;63906;55.686;37.532;2022-10-26T23:00:37;99880.69;;;3.04;66.78
75312;BME280;63906;55.686;37.532;2022-10-26T23:05:57;99856.59;;;2.82;67.23
75312;BME280;63906;55.686;37.532;2022-10-26T23:11:18;99882.09;;;3.08;66.74
75312;BME280;63906;55.686;37.532;2022-10-26T23:16:38;99891.53;;;3.18;66.45
75312;BME280;63906;55.686;37.532;2022-10-26T23:21:57;99868.94;;;3.09;67.29
75312;BME280;63906;55.686;37.532;2022-10-26T23:27:16;99839.63;;;2.97;66.98
75312;BME280;63906;55.686;37.532;2022-10-26T23:32:35;99849.66;;;3.12;66.29
75312;BME280;63906;55.686;37.532;2022-10-26T23:37:58;99873.59;;;3.35;66.34
75312;BME280;63906;55.686;37.532;2022-10-26T23:43:17;99873.03;;;3.41;66.30
75312;BME280;63906;55.686;37.532;2022-10-26T23:48:37;99860.03;;;3.21;66.53
75312;BME280;63906;55.686;37.532;2022-10-26T23:53:56;99859.22;;;3.21;66.16
75312;BME280;63906;55.686;37.532;2022-10-26T23:59:15;99866.50;;;3.17;66.92
